Time;durP1;ratioP1;P1;durP2;ratioP2;P2;SDS_P1;SDS_P2;PMS_P1;PMS_P2;Temp;Humidity;BMP_temperature;BMP_pressure;BME280_temperature;BME280_humidity;BME280_pressure;Samples;Min_cycle;Max_cycle;Signal;HPM_P1;HPM_P2
2022/01/02 00:01:36;;;;;;;7.35;4.72;;;10.70;99.90;;;;;;5095467;28;20032;-63
2022/01/02 00:04:03;;;;;;;7.70;4.30;;;10.70;99.90;;;;;;5094898;28;20032;-63
2022/01/02 00:06:36;;;;;;;7.47;4.82;;;10.60;99.90;;;;;;5095127;28;20480;-64
2022/01/02 00:09:05;;;;;;;5.43;4.20;;;10.60;99.90;;;;;;5094083;28;20380;-64
2022/01/02 00:11:31;;;;;;;5.95;4.20;;;10.60;99.90;;;;;;5095117;28;20038;-63
2022/01/02 00:14:06;;;;;;;5.78;4.30;;;10.50;99.90;;;;;;5094422;28;20406;-63
2022/01/02 00:16:36;;;;;;;6.47;4.05;;;10.50;99.90;;;;;;5095138;28;20028;-63
2022/01/02 00:19:16;;;;;;;6.63;4.27;;;10.50;99.90;;;;;;5094549;28;20024;-63
2022/01/02 00:21:45;;;;;;;7.85;5.20;;;10.50;99.90;;;;;;5094445;28;20282;-63
2022/01/02 00:24:16;;;;;;;8.25;4.28;;;10.40;99.90;;;;;;5094956;28;20032;-63
2022/01/02 00:26:45;;;;;;;6.88;5.15;;;10.40;99.90;;;;;;5094424;28;20457;-63
2022/01/02 00:29:12;;;;;;;8.80;4.90;;;10.40;99.90;;;;;;5094958;28;20028;-62
2022/01/02 00:31:42;;;;;;;6.68;4.60;;;10.40;99.90;;;;;;5094126;28;20032;-63
2022/01/02 00:34:09;;;;;;;7.97;4.85;;;10.40;99.90;;;;;;5094715;28;20020;-64
2022/01/02 00:36:35;;;;;;;7.15;4.90;;;10.30;99.90;;;;;;5094688;28;20043;-63
2022/01/02 00:39:19;;;;;;;7.55;5.03;;;10.30;99.90;;;;;;5094105;28;20028;-63
2022/01/02 00:41:44;;;;;;;8.32;5.07;;;10.30;99.90;;;;;;5093578;28;20062;-63
2022/01/02 00:44:46;;;;;;;7.25;5.15;;;10.20;99.90;;;;;;5094654;28;20063;-62
2022/01/02 00:47:37;;;;;;;8.25;5.32;;;10.20;99.90;;;;;;5094452;28;20449;-62
2022/01/02 00:50:09;;;;;;;5.97;4.80;;;10.20;99.90;;;;;;5082041;28;20068;-62
2022/01/02 00:52:43;;;;;;;8.02;5.25;;;10.20;99.90;;;;;;5094593;28;20093;-62
2022/01/02 00:55:12;;;;;;;6.97;4.78;;;10.20;99.90;;;;;;5094172;28;20245;-63
2022/01/02 00:57:41;;;;;;;9.13;5.43;;;10.10;99.90;;;;;;5094283;28;20024;-63
2022/01/02 01:00:11;;;;;;;10.35;5.45;;;10.10;99.90;;;;;;5093724;28;20034;-63
2022/01/02 01:02:42;;;;;;;8.13;5.40;;;10.10;99.90;;;;;;5094157;28;20115;-63
2022/01/02 01:05:09;;;;;;;9.52;5.40;;;10.10;99.90;;;;;;5094341;28;20104;-63
2022/01/02 01:07:38;;;;;;;9.55;5.80;;;10.10;99.90;;;;;;5094182;28;20042;-63
2022/01/02 01:10:08;;;;;;;7.63;5.50;;;10.00;99.90;;;;;;5093324;28;20169;-62
2022/01/02 01:12:34;;;;;;;11.30;5.97;;;10.00;99.90;;;;;;5094231;28;20031;-62
2022/01/02 01:15:01;;;;;;;8.93;6.05;;;10.00;99.90;;;;;;5093374;28;20040;-63
2022/01/02 01:17:30;;;;;;;9.30;5.82;;;10.00;99.90;;;;;;5093744;28;20032;-62
2022/01/02 01:19:57;;;;;;;9.77;5.63;;;10.00;99.90;;;;;;5093222;28;20430;-63
2022/01/02 01:22:23;;;;;;;6.28;5.25;;;10.00;99.90;;;;;;5093815;28;20024;-63
2022/01/02 01:24:49;;;;;;;8.38;4.53;;;10.00;99.90;;;;;;5093176;28;20046;-63
2022/01/02 01:27:15;;;;;;;8.95;4.63;;;10.00;99.90;;;;;;5075763;28;20040;-63
2022/01/02 01:29:40;;;;;;;10.57;4.93;;;9.90;99.90;;;;;;5093680;28;20457;-63
2022/01/02 01:32:08;;;;;;;8.30;4.80;;;9.90;99.90;;;;;;5093066;28;20024;-63
2022/01/02 01:34:35;;;;;;;9.57;5.43;;;9.90;99.90;;;;;;5093690;28;20024;-62
2022/01/02 01:37:01;;;;;;;8.70;4.90;;;9.80;99.90;;;;;;5074773;28;20419;-62
2022/01/02 01:39:27;;;;;;;9.05;5.07;;;9.80;99.90;;;;;;5093223;28;20024;-62
2022/01/02 01:41:54;;;;;;;7.10;4.65;;;9.80;99.90;;;;;;5092700;28;20093;-62
2022/01/02 01:44:52;;;;;;;7.25;4.97;;;9.70;99.90;;;;;;5093422;28;20020;-63
2022/01/02 01:47:07;;;;;;;8.27;4.50;;;9.70;99.90;;;;;;5091060;28;20032;-63
2022/01/02 01:49:33;;;;;;;7.07;5.03;;;9.60;99.90;;;;;;5075223;28;20089;-62
2022/01/02 01:51:58;;;;;;;7.60;5.05;;;9.60;99.90;;;;;;5092751;28;20024;-62
2022/01/02 01:57:08;;;;;;;8.25;5.80;;;9.50;99.90;;;;;;5092638;28;20035;-62
2022/01/02 01:59:34;;;;;;;8.57;5.15;;;9.50;99.90;;;;;;5093050;28;20385;-62
2022/01/02 02:02:01;;;;;;;7.80;5.50;;;9.50;99.90;;;;;;5074374;28;20431;-63
2022/01/02 02:04:28;;;;;;;8.15;5.75;;;9.50;99.90;;;;;;5092890;28;20415;-62
2022/01/02 02:06:55;;;;;;;9.23;5.60;;;9.50;99.90;;;;;;5092024;28;20062;-63
2022/01/02 02:09:24;;;;;;;8.75;5.40;;;9.50;99.90;;;;;;5093024;28;20024;-62
2022/01/02 02:11:50;;;;;;;8.65;5.95;;;9.50;99.90;;;;;;5092017;28;20059;-63
2022/01/02 02:14:16;;;;;;;7.90;5.20;;;9.50;99.90;;;;;;5092891;28;20036;-62
2022/01/02 02:16:42;;;;;;;7.65;5.55;;;9.50;99.90;;;;;;5092965;28;20069;-63
2022/01/02 02:19:08;;;;;;;11.27;6.47;;;9.50;99.90;;;;;;5092263;28;20070;-63
2022/01/02 02:21:37;;;;;;;11.20;5.47;;;9.40;99.90;;;;;;5092747;28;20039;-62
2022/01/02 02:24:05;;;;;;;7.63;5.80;;;9.40;99.90;;;;;;5092193;28;20028;-61
2022/01/02 02:26:33;;;;;;;8.40;6.25;;;9.40;99.90;;;;;;5092394;28;20150;-62
2022/01/02 02:28:59;;;;;;;9.50;6.00;;;9.40;99.90;;;;;;5092110;28;20051;-63
2022/01/02 02:31:24;;;;;;;8.30;5.88;;;9.40;99.90;;;;;;5092403;28;20484;-62
2022/01/02 02:33:50;;;;;;;7.75;5.80;;;9.40;99.90;;;;;;5073692;28;20034;-62
2022/01/02 02:36:16;;;;;;;9.15;5.43;;;9.40;99.90;;;;;;5092550;28;20111;-62
2022/01/02 02:38:41;;;;;;;10.75;6.40;;;9.30;99.90;;;;;;5092506;28;20024;-62
2022/01/02 02:41:07;;;;;;;7.18;5.35;;;9.30;99.90;;;;;;5091914;28;20073;-62
2022/01/02 02:49:05;;;;;;;8.48;5.57;;;9.20;99.90;;;;;;5071399;28;20459;-63
2022/01/02 02:54:06;;;;;;;12.68;5.80;;;9.10;99.90;;;;;;5071490;28;20055;-67
2022/01/02 02:56:45;;;;;;;7.93;5.18;;;9.10;99.90;;;;;;5072665;28;20024;-67
2022/01/02 02:59:12;;;;;;;7.82;5.43;;;9.10;99.90;;;;;;5072138;28;20020;-68
2022/01/02 03:01:39;;;;;;;7.25;5.15;;;9.10;99.90;;;;;;5072568;28;20091;-69
2022/01/02 03:04:04;;;;;;;10.05;5.10;;;9.10;99.90;;;;;;5072090;28;20098;-68
2022/01/02 03:06:30;;;;;;;7.30;5.10;;;9.10;99.90;;;;;;5072494;28;20111;-68
2022/01/02 03:09:03;;;;;;;7.93;5.07;;;9.00;99.90;;;;;;5072040;28;20025;-68
2022/01/02 03:11:30;;;;;;;7.15;5.35;;;9.10;99.90;;;;;;5072675;28;20396;-68
2022/01/02 03:13:55;;;;;;;10.02;5.90;;;9.10;99.90;;;;;;5071887;28;20055;-68
2022/01/02 03:16:21;;;;;;;8.00;5.65;;;9.10;99.90;;;;;;5072423;28;20025;-68
2022/01/02 03:18:47;;;;;;;8.35;5.93;;;9.10;99.90;;;;;;5072584;28;20461;-67
2022/01/02 03:21:13;;;;;;;7.88;5.35;;;9.10;99.90;;;;;;5071617;28;20392;-68
2022/01/02 03:23:39;;;;;;;9.98;6.15;;;9.10;99.90;;;;;;5072491;28;20029;-68
2022/01/02 03:26:05;;;;;;;10.93;5.40;;;9.10;99.90;;;;;;5071901;28;20028;-68
2022/01/02 03:28:31;;;;;;;10.98;6.32;;;9.10;99.90;;;;;;5072495;28;20028;-68
2022/01/02 03:30:57;;;;;;;9.30;6.22;;;9.10;99.90;;;;;;5071805;28;20028;-68
2022/01/02 03:33:23;;;;;;;8.93;6.13;;;9.10;99.90;;;;;;5072456;28;20427;-68
2022/01/02 03:35:48;;;;;;;8.18;6.15;;;9.10;99.90;;;;;;5072271;28;20435;-68
2022/01/02 03:38:15;;;;;;;8.90;6.50;;;9.10;99.90;;;;;;5071758;28;20031;-68
2022/01/02 03:40:40;;;;;;;8.63;6.00;;;9.10;99.90;;;;;;5071957;28;20036;-68
2022/01/02 03:43:06;;;;;;;8.45;6.00;;;9.00;99.90;;;;;;5071721;28;20029;-68
2022/01/02 03:45:32;;;;;;;8.18;5.68;;;9.00;99.90;;;;;;5072218;28;20033;-69
2022/01/02 03:47:58;;;;;;;10.50;6.20;;;9.00;99.90;;;;;;5071489;28;20032;-68
2022/01/02 03:50:24;;;;;;;7.80;5.63;;;9.00;99.90;;;;;;5072189;28;20033;-68
2022/01/02 03:52:50;;;;;;;8.88;6.22;;;8.90;99.90;;;;;;5072113;28;20381;-69
2022/01/02 03:55:16;;;;;;;8.95;5.68;;;8.90;99.90;;;;;;5053447;28;20051;-68
2022/01/02 03:57:42;;;;;;;6.72;5.50;;;8.80;99.90;;;;;;5054308;28;20025;-69
2022/01/02 04:00:10;;;;;;;9.15;5.95;;;8.80;99.90;;;;;;5071356;28;20060;-68
2022/01/02 04:02:37;;;;;;;9.63;5.88;;;8.80;99.90;;;;;;5072098;28;20025;-68
2022/01/02 04:05:06;;;;;;;10.45;6.03;;;8.80;99.90;;;;;;5072188;28;20024;-68
2022/01/02 04:07:32;;;;;;;7.40;5.75;;;8.70;99.90;;;;;;5075803;28;20035;-68
2022/01/02 04:10:01;;;;;;;8.77;6.07;;;8.70;99.90;;;;;;5075294;28;20029;-68
2022/01/02 04:12:27;;;;;;;8.68;5.78;;;8.70;99.90;;;;;;5075912;28;20032;-68
2022/01/02 04:14:53;;;;;;;10.48;5.90;;;8.70;99.90;;;;;;5075593;28;20024;-68
2022/01/02 04:17:18;;;;;;;8.50;6.05;;;8.60;99.90;;;;;;5074795;28;20033;-68
2022/01/02 04:19:44;;;;;;;11.15;6.65;;;8.60;99.90;;;;;;5075426;28;20029;-69
2022/01/02 04:22:10;;;;;;;9.27;6.55;;;8.60;99.90;;;;;;5075017;28;20032;-68
2022/01/02 04:24:35;;;;;;;9.82;6.55;;;8.60;99.90;;;;;;5075687;28;20025;-69
2022/01/02 04:27:01;;;;;;;8.27;6.43;;;8.50;99.90;;;;;;5074862;28;20381;-69
2022/01/02 04:29:26;;;;;;;11.07;6.55;;;8.50;99.90;;;;;;5057441;28;20468;-68
2022/01/02 04:31:52;;;;;;;9.75;6.28;;;8.50;99.90;;;;;;5075600;28;20107;-68
2022/01/02 04:34:18;;;;;;;11.55;6.47;;;8.50;99.90;;;;;;5074753;28;20067;-68
2022/01/02 04:36:44;;;;;;;9.00;6.25;;;8.40;99.90;;;;;;5074931;28;20107;-69
2022/01/02 04:39:09;;;;;;;9.15;6.38;;;8.40;99.90;;;;;;5074528;28;20055;-68
2022/01/02 04:41:35;;;;;;;8.27;6.38;;;8.40;99.90;;;;;;5075072;28;20052;-68
2022/01/02 04:44:01;;;;;;;7.93;5.47;;;8.40;99.90;;;;;;5074795;28;20108;-68
2022/01/02 04:46:26;;;;;;;8.63;5.88;;;8.40;99.90;;;;;;5075294;28;20112;-68
2022/01/02 04:48:52;;;;;;;9.27;5.70;;;8.40;99.90;;;;;;5074952;28;20063;-67
2022/01/02 04:51:17;;;;;;;10.50;5.85;;;8.30;99.90;;;;;;5074344;28;20031;-69
2022/01/02 04:53:48;;;;;;;8.25;5.57;;;8.30;99.90;;;;;;5074768;28;20101;-67
2022/01/02 04:56:14;;;;;;;9.77;5.57;;;8.30;99.90;;;;;;5074299;28;20028;-67
2022/01/02 04:58:39;;;;;;;9.10;5.60;;;8.30;99.90;;;;;;5074713;28;20434;-67
2022/01/02 05:01:11;;;;;;;8.57;6.13;;;8.30;99.90;;;;;;5074243;28;20042;-67
2022/01/02 05:03:40;;;;;;;9.95;5.90;;;8.30;99.90;;;;;;5074808;28;20020;-68
2022/01/02 05:06:07;;;;;;;9.52;5.80;;;8.30;99.90;;;;;;5074215;28;20111;-67
2022/01/02 05:08:32;;;;;;;10.65;6.00;;;8.30;99.90;;;;;;5074336;28;20028;-67
2022/01/02 05:10:58;;;;;;;6.72;5.50;;;8.30;99.90;;;;;;5074495;28;20028;-67
2022/01/02 05:13:24;;;;;;;9.10;5.63;;;8.20;99.90;;;;;;5073967;28;20024;-67
2022/01/02 05:15:49;;;;;;;8.15;6.25;;;8.20;99.90;;;;;;5073764;28;20380;-66
2022/01/02 05:18:15;;;;;;;7.60;5.72;;;8.20;99.90;;;;;;5073829;28;20082;-67
2022/01/02 05:20:44;;;;;;;8.48;5.85;;;8.20;99.90;;;;;;5074258;28;20101;-67
2022/01/02 05:23:10;;;;;;;9.07;6.20;;;8.20;99.90;;;;;;5073690;28;20036;-67
2022/01/02 05:25:35;;;;;;;8.63;5.95;;;8.20;99.90;;;;;;5073927;28;20074;-67
2022/01/02 05:28:01;;;;;;;8.30;5.38;;;8.20;99.90;;;;;;5073873;28;20021;-66
2022/01/02 05:30:27;;;;;;;9.38;6.28;;;8.20;99.90;;;;;;5056087;28;20085;-68
2022/01/02 05:32:53;;;;;;;8.50;5.90;;;8.20;99.90;;;;;;5056145;28;20024;-68
2022/01/02 05:35:18;;;;;;;10.23;6.10;;;8.20;99.90;;;;;;5073198;28;20028;-66
2022/01/02 05:37:44;;;;;;;10.68;6.40;;;8.20;99.90;;;;;;5073694;28;20032;-67
2022/01/02 05:40:10;;;;;;;9.98;6.05;;;8.20;99.90;;;;;;5074826;28;20451;-67
2022/01/02 05:42:35;;;;;;;7.47;5.82;;;8.20;99.90;;;;;;5074699;28;20113;-67
2022/01/02 05:45:02;;;;;;;11.18;6.00;;;8.20;99.90;;;;;;5073642;28;20381;-67
2022/01/02 05:47:28;;;;;;;10.98;5.82;;;8.20;99.90;;;;;;5073680;28;20052;-68
2022/01/02 05:49:53;;;;;;;11.35;6.70;;;8.20;99.90;;;;;;5073766;28;20121;-68
2022/01/02 05:52:19;;;;;;;11.20;6.28;;;8.10;99.90;;;;;;5073298;28;20032;-68
2022/01/02 05:54:45;;;;;;;9.70;6.70;;;8.10;99.90;;;;;;5073597;28;20048;-69
2022/01/02 05:57:30;;;;;;;9.35;6.55;;;8.10;99.90;;;;;;5073972;28;20082;-68
2022/01/02 05:59:56;;;;;;;13.25;7.18;;;8.10;99.90;;;;;;5073190;28;20043;-68
2022/01/02 06:02:23;;;;;;;8.98;6.20;;;8.00;99.90;;;;;;5073062;28;20032;-68
2022/01/02 06:04:49;;;;;;;11.52;7.20;;;8.00;99.90;;;;;;5055296;28;20100;-68
2022/01/02 06:07:15;;;;;;;9.02;6.72;;;8.00;99.90;;;;;;5072948;28;20432;-68
2022/01/02 06:09:41;;;;;;;9.98;7.35;;;7.90;99.90;;;;;;5055423;28;20522;-68
2022/01/02 06:12:07;;;;;;;9.05;6.72;;;7.90;99.90;;;;;;5072594;28;20029;-68
2022/01/02 06:14:32;;;;;;;10.45;7.22;;;7.90;99.90;;;;;;5072785;28;20025;-68
2022/01/02 06:16:58;;;;;;;10.75;6.53;;;7.90;99.90;;;;;;5073009;28;20024;-68
2022/01/02 06:19:24;;;;;;;9.43;6.68;;;7.90;99.90;;;;;;5072503;28;20029;-68
2022/01/02 06:21:49;;;;;;;9.73;6.40;;;7.90;99.90;;;;;;5072608;28;20452;-67
2022/01/02 06:24:15;;;;;;;9.63;6.90;;;7.90;99.90;;;;;;5072039;28;20517;-68
2022/01/02 06:26:41;;;;;;;13.57;6.95;;;7.90;99.90;;;;;;5072997;28;20100;-68
2022/01/02 06:29:06;;;;;;;9.80;6.55;;;7.90;99.90;;;;;;5053850;28;20025;-68
2022/01/02 06:31:32;;;;;;;9.25;6.80;;;7.90;99.90;;;;;;5072910;28;20036;-67
2022/01/02 06:33:58;;;;;;;12.20;7.18;;;7.80;99.90;;;;;;5054946;28;20021;-68
2022/01/02 06:36:23;;;;;;;10.77;6.40;;;7.80;99.90;;;;;;5072310;28;20032;-68
2022/01/02 06:38:49;;;;;;;11.63;6.93;;;7.80;99.90;;;;;;5072812;28;20039;-68
2022/01/02 06:41:16;;;;;;;8.15;6.03;;;7.80;99.90;;;;;;5072271;28;20040;-68
2022/01/02 06:43:43;;;;;;;10.18;6.57;;;7.80;99.90;;;;;;5072892;28;20571;-67
2022/01/02 06:46:08;;;;;;;10.60;6.00;;;7.80;99.90;;;;;;5072317;28;20048;-68
2022/01/02 06:48:34;;;;;;;11.55;6.68;;;7.80;99.90;;;;;;5072712;28;20102;-67
2022/01/02 06:51:00;;;;;;;9.45;6.20;;;7.80;99.90;;;;;;5072911;28;20035;-67
2022/01/02 06:53:26;;;;;;;9.45;6.32;;;7.80;99.90;;;;;;5071969;28;20028;-68
2022/01/02 06:55:51;;;;;;;9.00;6.22;;;7.70;99.90;;;;;;5071211;28;20052;-67
2022/01/02 06:58:17;;;;;;;8.98;6.55;;;7.80;99.90;;;;;;5072009;28;20393;-68
2022/01/02 07:00:43;;;;;;;9.27;6.50;;;7.70;99.90;;;;;;5054732;28;20442;-68
2022/01/02 07:03:09;;;;;;;9.63;6.53;;;7.70;99.90;;;;;;5072064;28;20024;-68
2022/01/02 07:05:36;;;;;;;10.25;6.65;;;7.70;99.90;;;;;;5072479;28;20033;-68
2022/01/02 07:08:02;;;;;;;10.57;7.15;;;7.60;99.90;;;;;;5072221;28;20036;-68
2022/01/02 07:10:28;;;;;;;11.13;6.72;;;7.70;99.90;;;;;;5071735;28;20056;-69
2022/01/02 07:12:53;;;;;;;9.80;6.55;;;7.60;99.90;;;;;;5072369;28;20057;-69
2022/01/02 07:15:19;;;;;;;8.30;6.28;;;7.60;99.90;;;;;;5071907;28;20097;-68
2022/01/02 07:17:45;;;;;;;9.02;5.65;;;7.60;99.90;;;;;;5072271;28;20029;-68
2022/01/02 07:20:12;;;;;;;7.65;5.65;;;7.50;99.90;;;;;;5071523;28;20093;-69
2022/01/02 07:22:39;;;;;;;8.50;5.10;;;7.50;99.90;;;;;;5072189;28;20107;-67
2022/01/02 07:25:05;;;;;;;11.13;5.63;;;7.50;99.90;;;;;;5072310;28;20032;-67
2022/01/02 07:27:31;;;;;;;8.85;5.30;;;7.40;99.90;;;;;;5071729;28;20100;-68
2022/01/02 07:30:15;;;;;;;7.78;5.45;;;7.40;99.90;;;;;;5072102;28;20180;-68
2022/01/02 07:32:42;;;;;;;10.02;5.18;;;7.40;99.90;;;;;;5072510;28;20028;-68
2022/01/02 07:35:08;;;;;;;8.90;5.45;;;7.40;99.90;;;;;;5072218;28;20372;-68
2022/01/02 07:37:53;;;;;;;8.27;5.50;;;7.40;99.90;;;;;;5071690;28;20032;-68
2022/01/02 07:40:18;;;;;;;7.45;4.82;;;7.40;99.90;;;;;;5056270;28;20484;-68
2022/01/02 07:42:44;;;;;;;9.45;5.32;;;7.40;99.90;;;;;;5058140;28;20028;-67
2022/01/02 07:45:10;;;;;;;9.40;5.82;;;7.40;99.90;;;;;;5076053;28;20035;-67
2022/01/02 07:47:38;;;;;;;7.03;4.78;;;7.40;99.90;;;;;;5075033;28;20123;-67
2022/01/02 07:50:04;;;;;;;7.97;5.00;;;7.30;99.90;;;;;;5075879;28;20332;-68
2022/01/02 07:52:30;;;;;;;10.95;5.35;;;7.30;99.90;;;;;;5075348;28;20025;-67
2022/01/02 07:54:55;;;;;;;9.27;5.70;;;7.30;99.90;;;;;;5075508;28;20114;-67
2022/01/02 07:57:21;;;;;;;8.18;5.47;;;7.30;99.90;;;;;;5075013;28;20103;-68
2022/01/02 07:59:47;;;;;;;10.25;6.28;;;7.30;99.90;;;;;;5075922;28;20056;-68
2022/01/02 08:02:12;;;;;;;10.35;5.82;;;7.30;99.90;;;;;;5075122;28;20029;-67
2022/01/02 08:04:38;;;;;;;9.43;5.60;;;7.30;99.90;;;;;;5075646;28;20029;-68
2022/01/02 08:07:04;;;;;;;8.07;5.53;;;7.30;99.90;;;;;;5075808;28;20029;-68
2022/01/02 08:09:29;;;;;;;9.60;5.65;;;7.20;99.90;;;;;;5075090;28;20366;-68
2022/01/02 08:11:55;;;;;;;11.35;5.72;;;7.20;99.90;;;;;;5075416;28;20039;-68
2022/01/02 08:14:21;;;;;;;10.38;6.30;;;7.20;99.90;;;;;;5074961;28;20033;-68
2022/01/02 08:17:06;;;;;;;7.78;6.05;;;7.20;99.90;;;;;;5075493;28;20067;-68
2022/01/02 08:19:31;;;;;;;10.57;6.30;;;7.20;99.90;;;;;;5074907;28;20028;-68
2022/01/02 08:21:57;;;;;;;8.48;6.28;;;7.20;99.90;;;;;;5074978;28;20036;-67
2022/01/02 08:24:22;;;;;;;9.25;5.97;;;7.20;99.90;;;;;;5056900;28;20024;-68
2022/01/02 08:26:48;;;;;;;8.05;6.28;;;7.20;99.90;;;;;;5075456;28;20027;-68
2022/01/02 08:29:14;;;;;;;11.30;7.03;;;7.30;99.90;;;;;;5074833;28;20431;-67
2022/01/02 08:31:40;;;;;;;8.25;6.22;;;7.30;99.90;;;;;;5057172;28;20111;-69
2022/01/02 08:34:06;;;;;;;10.10;7.18;;;7.30;99.90;;;;;;5074793;28;20414;-68
2022/01/02 08:36:31;;;;;;;9.48;6.55;;;7.40;99.90;;;;;;5074335;28;20029;-69
2022/01/02 08:38:57;;;;;;;10.30;8.15;;;7.40;99.90;;;;;;5057235;28;20029;-68
2022/01/02 08:41:23;;;;;;;10.85;7.50;;;7.50;99.90;;;;;;5074290;28;20044;-68
2022/01/02 08:44:07;;;;;;;9.90;6.88;;;7.50;99.90;;;;;;5074762;28;20024;-68
2022/01/02 08:46:33;;;;;;;9.25;6.55;;;7.60;99.90;;;;;;5074148;28;20102;-68
2022/01/02 08:48:58;;;;;;;13.15;7.63;;;7.60;99.90;;;;;;5074866;28;20071;-68
2022/01/02 08:51:27;;;;;;;11.15;7.88;;;7.70;99.90;;;;;;5073561;28;20036;-68
2022/01/02 08:53:52;;;;;;;10.88;8.10;;;7.70;99.90;;;;;;5074727;28;20090;-68
2022/01/02 08:56:18;;;;;;;12.90;7.38;;;7.70;99.90;;;;;;5074622;28;20028;-67
2022/01/02 08:58:44;;;;;;;10.15;7.88;;;7.80;99.90;;;;;;5075039;28;20452;-68
2022/01/02 09:01:09;;;;;;;10.38;8.18;;;7.80;99.90;;;;;;5074011;28;20385;-67
2022/01/02 09:03:35;;;;;;;9.98;7.47;;;7.90;99.90;;;;;;5073750;28;20039;-68
2022/01/02 09:06:00;;;;;;;15.07;8.90;;;7.90;99.90;;;;;;5074338;28;20025;-68
2022/01/02 09:08:26;;;;;;;9.80;7.88;;;7.90;99.90;;;;;;5073994;28;20029;-67
2022/01/02 09:10:52;;;;;;;10.00;7.63;;;8.00;99.90;;;;;;5074483;28;20029;-68
2022/01/02 09:13:18;;;;;;;9.52;8.18;;;8.00;99.90;;;;;;5073974;28;20052;-65
2022/01/02 09:15:43;;;;;;;11.52;8.75;;;8.10;99.90;;;;;;5074002;28;20100;-68
2022/01/02 09:18:09;;;;;;;10.82;8.32;;;8.10;99.90;;;;;;5074221;28;20108;-68
2022/01/02 09:20:35;;;;;;;12.10;8.15;;;8.20;99.90;;;;;;5055997;28;20060;-67
2022/01/02 09:23:01;;;;;;;10.57;8.25;;;8.30;99.90;;;;;;5074019;28;20472;-68
2022/01/02 09:25:26;;;;;;;9.55;7.50;;;8.30;99.90;;;;;;5073791;28;20028;-67
2022/01/02 09:27:52;;;;;;;10.10;8.52;;;8.40;99.90;;;;;;5074252;28;20032;-69
2022/01/02 09:30:18;;;;;;;11.32;8.68;;;8.40;99.90;;;;;;5074345;28;20079;-69
2022/01/02 09:32:43;;;;;;;11.07;8.90;;;8.40;99.90;;;;;;5074355;28;20469;-69
2022/01/02 09:35:10;;;;;;;10.43;8.38;;;8.40;99.90;;;;;;5074068;28;20056;-68
2022/01/02 09:37:36;;;;;;;11.35;8.57;;;8.40;99.90;;;;;;5073386;28;20039;-68
2022/01/02 09:40:06;;;;;;;11.13;8.18;;;8.40;99.90;;;;;;5073790;28;20111;-69
2022/01/02 09:42:33;;;;;;;10.82;7.90;;;8.40;99.90;;;;;;5073147;28;20044;-69
2022/01/02 09:44:59;;;;;;;11.63;8.40;;;8.50;99.90;;;;;;5073628;28;20530;-68
2022/01/02 09:47:25;;;;;;;9.73;7.78;;;8.50;99.90;;;;;;5073358;28;20028;-68
2022/01/02 09:49:50;;;;;;;9.07;7.78;;;8.50;99.90;;;;;;5073736;28;20024;-68
2022/01/02 09:52:17;;;;;;;10.88;7.85;;;8.60;99.90;;;;;;5073598;28;20028;-68
2022/01/02 09:54:43;;;;;;;10.85;7.85;;;8.60;99.90;;;;;;5073304;28;20180;-69
2022/01/02 09:57:09;;;;;;;8.60;7.35;;;8.70;99.90;;;;;;5073719;28;20060;-65
2022/01/02 09:59:35;;;;;;;9.95;7.80;;;8.70;99.90;;;;;;5073206;28;20033;-69
2022/01/02 10:02:01;;;;;;;8.98;7.68;;;8.70;99.90;;;;;;5073592;28;20082;-70
2022/01/02 10:04:56;;;;;;;9.10;7.20;;;8.80;99.90;;;;;;5073065;28;20074;-67
2022/01/02 10:07:34;;;;;;;10.60;7.38;;;8.80;99.90;;;;;;5073045;28;20520;-67
2022/01/02 10:10:12;;;;;;;10.85;7.38;;;8.90;99.90;;;;;;5073613;28;20029;-68
2022/01/02 10:12:39;;;;;;;9.73;7.53;;;9.10;99.90;;;;;;5073142;28;20025;-70
2022/01/02 10:15:20;;;;;;;9.25;7.47;;;9.20;99.90;;;;;;5073626;28;20033;-66
2022/01/02 10:18:06;;;;;;;8.63;7.72;;;9.40;99.90;;;;;;5072890;28;20379;-68
2022/01/02 10:20:42;;;;;;;8.93;7.40;;;9.60;99.90;;;;;;5072735;28;20039;-67
2022/01/02 10:23:20;;;;;;;9.40;8.05;;;9.80;99.90;;;;;;5072180;28;20099;-67
2022/01/02 10:25:52;;;;;;;9.95;7.80;;;10.00;99.90;;;;;;5072135;28;20484;-66
2022/01/02 10:28:27;;;;;;;11.23;7.68;;;10.10;99.90;;;;;;5072763;28;20035;-67
2022/01/02 10:31:07;;;;;;;11.63;7.50;;;10.20;99.90;;;;;;5073278;28;20134;-66
2022/01/02 10:33:46;;;;;;;9.23;7.78;;;10.20;99.40;;;;;;5072330;28;20479;-66
2022/01/02 10:36:12;;;;;;;10.18;7.32;;;10.30;98.90;;;;;;5072714;28;20341;-67
2022/01/02 10:38:38;;;;;;;8.10;7.18;;;10.50;98.90;;;;;;5072259;28;20027;-65
2022/01/02 10:41:04;;;;;;;8.82;7.70;;;10.60;98.50;;;;;;5072548;28;20033;-66
2022/01/02 10:43:34;;;;;;;9.57;7.60;;;10.80;98.00;;;;;;5072259;28;20021;-64
2022/01/02 10:46:09;;;;;;;8.98;7.30;;;10.90;97.80;;;;;;5072909;28;20032;-67
2022/01/02 10:48:40;;;;;;;9.82;7.35;;;11.00;96.40;;;;;;5072274;28;20112;-65
2022/01/02 10:51:10;;;;;;;8.45;7.03;;;11.10;95.60;;;;;;5072573;28;20028;-66
2022/01/02 10:53:51;;;;;;;10.27;7.00;;;11.30;95.00;;;;;;5071765;28;20093;-66
2022/01/02 10:56:21;;;;;;;8.95;6.80;;;11.40;94.30;;;;;;5052623;28;20167;-66
2022/01/02 10:58:47;;;;;;;7.97;6.80;;;11.50;93.70;;;;;;5051774;28;20021;-66
2022/01/02 11:01:13;;;;;;;8.68;6.90;;;11.70;92.80;;;;;;5052503;28;20033;-66
2022/01/02 11:03:41;;;;;;;7.55;6.38;;;11.70;92.10;;;;;;5052201;28;20028;-66
2022/01/02 11:06:09;;;;;;;8.85;6.30;;;11.90;91.70;;;;;;5052785;28;20107;-66
2022/01/02 11:08:37;;;;;;;10.07;6.90;;;12.00;91.60;;;;;;5052149;28;20159;-66
2022/01/02 11:11:05;;;;;;;7.75;6.50;;;12.20;91.10;;;;;;5052384;28;20029;-66
2022/01/02 11:13:32;;;;;;;7.95;6.80;;;12.30;90.50;;;;;;5050336;28;20384;-66
2022/01/02 11:16:01;;;;;;;8.20;6.63;;;12.40;89.30;;;;;;5052722;28;20039;-66
2022/01/02 11:18:30;;;;;;;7.53;6.68;;;12.50;88.20;;;;;;5055017;28;20048;-66
2022/01/02 11:20:55;;;;;;;7.75;6.95;;;12.50;87.30;;;;;;5054731;28;20532;-66
2022/01/02 11:23:25;;;;;;;7.82;6.53;;;12.60;86.60;;;;;;5053181;28;20025;-66
2022/01/02 11:28:49;;;;;;;7.97;6.68;;;12.80;85.60;;;;;;5051521;28;20075;-66
2022/01/02 11:31:34;;;;;;;7.85;6.20;;;12.90;84.10;;;;;;5052689;28;20036;-67
2022/01/02 11:34:00;;;;;;;9.25;6.38;;;13.00;84.30;;;;;;5052874;28;20068;-65
2022/01/02 11:36:34;;;;;;;6.43;5.80;;;13.10;83.40;;;;;;5050953;28;20057;-65
2022/01/02 11:39:05;;;;;;;9.02;6.25;;;13.20;82.40;;;;;;5051801;28;20485;-65
2022/01/02 11:41:36;;;;;;;8.68;6.47;;;13.20;81.30;;;;;;5051540;28;20033;-66
2022/01/02 11:44:04;;;;;;;7.78;6.40;;;13.20;81.00;;;;;;5052000;28;20025;-66
2022/01/02 11:46:56;;;;;;;9.45;6.78;;;13.30;80.80;;;;;;5051411;28;20033;-66
2022/01/02 11:49:25;;;;;;;7.18;6.47;;;13.40;80.60;;;;;;5051818;28;20112;-67
2022/01/02 11:54:46;;;;;;;9.45;6.97;;;13.50;79.00;;;;;;5059957;28;20500;-67
2022/01/02 11:57:14;;;;;;;8.40;6.28;;;13.60;78.70;;;;;;5072062;28;20079;-67
2022/01/02 11:59:40;;;;;;;11.25;7.57;;;13.50;77.90;;;;;;5071673;28;20071;-67
2022/01/02 12:02:18;;;;;;;11.13;6.80;;;13.60;78.00;;;;;;5071820;28;20063;-65
2022/01/02 12:04:59;;;;;;;8.07;6.60;;;13.60;78.30;;;;;;5071369;28;20031;-66
2022/01/02 12:07:34;;;;;;;9.27;7.03;;;13.60;77.80;;;;;;5071926;28;20036;-66
2022/01/02 12:10:17;;;;;;;8.25;6.95;;;13.60;76.80;;;;;;5071777;28;20029;-66
2022/01/02 12:13:20;;;;;;;9.60;7.32;;;13.60;77.70;;;;;;5071182;28;20025;-65
2022/01/02 12:15:45;;;;;;;7.65;6.47;;;13.60;77.60;;;;;;5071112;28;20035;-66
2022/01/02 12:18:28;;;;;;;9.73;5.90;;;13.50;77.00;;;;;;5071605;28;20382;-65
2022/01/02 12:20:56;;;;;;;8.13;6.60;;;13.60;77.80;;;;;;5071669;28;20416;-67
2022/01/02 12:23:34;;;;;;;7.25;6.50;;;13.50;77.30;;;;;;5071647;28;20120;-66
2022/01/02 12:26:25;;;;;;;10.63;7.57;;;13.60;77.50;;;;;;5072008;28;20039;-66
2022/01/02 12:28:58;;;;;;;7.57;6.03;;;13.60;77.30;;;;;;5056736;28;20469;-66
2022/01/02 12:31:36;;;;;;;7.90;5.55;;;13.60;76.40;;;;;;5056512;28;20051;-65
2022/01/02 12:34:19;;;;;;;7.82;5.93;;;13.50;76.20;;;;;;5075071;28;20071;-66
2022/01/02 12:36:50;;;;;;;6.35;5.72;;;13.40;77.20;;;;;;5057292;28;20254;-66
2022/01/02 12:39:15;;;;;;;8.70;5.88;;;13.40;77.00;;;;;;5074985;28;20077;-66
2022/01/02 12:41:44;;;;;;;9.15;6.07;;;13.50;78.00;;;;;;5074020;28;20115;-66
2022/01/02 12:44:13;;;;;;;7.78;6.63;;;13.50;77.80;;;;;;5074774;28;20029;-67
2022/01/02 12:46:59;;;;;;;8.65;6.15;;;13.40;77.50;;;;;;5074384;28;20028;-66
2022/01/02 12:49:31;;;;;;;9.93;7.15;;;13.40;77.70;;;;;;5074358;28;20028;-65
2022/01/02 12:52:10;;;;;;;;;;;13.40;77.90;;;;;;5075084;28;20503;-66
2022/01/02 12:54:49;;;;;;;7.95;5.88;;;13.40;78.40;;;;;;5073961;28;20331;-65
2022/01/02 12:57:16;;;;;;;7.70;6.63;;;13.40;77.90;;;;;;5074805;28;20024;-66
2022/01/02 12:59:45;;;;;;;9.95;7.43;;;13.40;77.50;;;;;;5073912;28;20109;-67
2022/01/02 13:02:16;;;;;;;8.43;6.65;;;13.30;78.50;;;;;;5074522;28;20032;-66
2022/01/02 13:04:44;;;;;;;8.75;6.55;;;13.30;78.00;;;;;;5073955;28;20021;-66
2022/01/02 13:07:13;;;;;;;9.18;6.47;;;13.20;78.20;;;;;;5056521;28;20033;-67
2022/01/02 13:09:43;;;;;;;7.25;6.45;;;13.30;79.00;;;;;;5073839;28;20060;-66
2022/01/02 13:12:12;;;;;;;9.20;7.18;;;13.30;78.70;;;;;;5056159;28;20040;-67
2022/01/02 13:14:45;;;;;;;9.32;6.53;;;13.30;78.30;;;;;;5073793;28;20028;-67